createdAt,value
2019-04-10T00:02:37.646Z,98429.42
2019-04-10T00:05:44.442Z,98434.59
2019-04-10T00:08:50.953Z,98431.70
2019-04-10T00:11:57.065Z,98432.57
2019-04-10T00:15:03.104Z,98430.24
2019-04-10T00:18:09.577Z,98437.05
2019-04-10T00:21:17.526Z,98442.47
2019-04-10T00:24:23.963Z,98447.33
2019-04-10T00:27:30.420Z,98442.52
2019-04-10T00:30:36.182Z,98439.47
2019-04-10T00:33:42.963Z,98438.73
2019-04-10T00:36:49.143Z,98442.29
2019-04-10T00:39:55.105Z,98445.14
2019-04-10T00:43:00.795Z,98434.62
2019-04-10T00:46:06.547Z,98434.81
2019-04-10T00:49:12.228Z,98429.86
2019-04-10T00:52:17.895Z,98426.75
2019-04-10T00:55:23.851Z,98429.69
2019-04-10T00:58:30.217Z,98427.77
2019-04-10T01:01:36.307Z,98430.62
2019-04-10T01:04:43.085Z,98425.14
2019-04-10T01:07:48.767Z,98428.30
2019-04-10T01:10:54.743Z,98426.69
2019-04-10T01:14:01.231Z,98425.14
2019-04-10T01:17:07.017Z,98427.49
2019-04-10T01:20:15.588Z,98423.48
2019-04-10T01:23:22.508Z,98430.75
2019-04-10T01:26:29.678Z,98432.30
2019-04-10T01:29:35.700Z,98428.84
2019-04-10T01:32:41.859Z,98426.69
2019-04-10T01:35:48.739Z,98432.08
2019-04-10T01:38:54.875Z,98427.70
2019-04-10T01:42:00.676Z,98424.33
2019-04-10T01:45:07.195Z,98416.84
2019-04-10T01:48:12.982Z,98423.19
2019-04-10T01:51:19.205Z,98419.02
2019-04-10T01:54:24.945Z,98417.64
2019-04-10T01:57:30.655Z,98414.58
2019-04-10T02:00:37.558Z,98418.15
2019-04-10T02:03:43.231Z,98416.20
2019-04-10T02:06:49.555Z,98416.02
2019-04-10T02:09:56.187Z,98413.13
2019-04-10T02:13:01.979Z,98414.45
2019-04-10T02:16:08.239Z,98416.47
2019-04-10T02:19:14.328Z,98416.64
2019-04-10T02:22:20.426Z,98418.57
2019-04-10T02:25:26.186Z,98419.14
2019-04-10T02:28:33.275Z,98412.11
2019-04-10T02:31:39.577Z,98406.91
2019-04-10T02:34:46.799Z,98409.95
2019-04-10T02:37:55.522Z,98413.41
2019-04-10T02:41:01.638Z,98422.52
2019-04-10T02:44:07.989Z,98422.45
2019-04-10T02:47:14.689Z,98424.80
2019-04-10T02:50:20.796Z,98427.19
2019-04-10T02:53:27.656Z,98431.78
2019-04-10T02:56:33.466Z,98427.97
2019-04-10T02:59:39.789Z,98430.59
2019-04-10T03:02:47.737Z,98433.31
2019-04-10T03:05:54.221Z,98426.44
2019-04-10T03:09:14.780Z,98433.14
2019-04-10T03:12:10.569Z,98432.23
2019-04-10T03:15:17.285Z,98430.47
2019-04-10T03:18:25.104Z,98430.35
2019-04-10T03:21:31.305Z,98435.27
2019-04-10T03:24:38.034Z,98433.50
2019-04-10T03:27:44.794Z,98431.66
2019-04-10T03:30:50.914Z,98441.27
2019-04-10T03:34:03.584Z,98436.97
2019-04-10T03:37:09.687Z,98448.02
2019-04-10T03:40:15.595Z,98449.06
2019-04-10T03:43:21.611Z,98456.36
2019-04-10T03:46:27.735Z,98456.89
2019-04-10T03:49:33.925Z,98457.28
2019-04-10T03:52:41.162Z,98465.69
2019-04-10T03:55:47.339Z,98462.25
2019-04-10T03:58:52.986Z,98459.63
2019-04-10T04:01:59.631Z,98460.20
2019-04-10T04:05:06.531Z,98459.84
2019-04-10T04:08:13.111Z,98468.14
2019-04-10T04:11:19.698Z,98463.58
2019-04-10T04:14:26.775Z,98469.00
2019-04-10T04:17:34.003Z,98470.75
2019-04-10T04:20:39.684Z,98476.09
2019-04-10T04:23:45.355Z,98471.09
2019-04-10T04:26:51.169Z,98474.34
2019-04-10T04:30:00.757Z,98478.36
2019-04-10T04:33:08.826Z,98478.84
2019-04-10T04:36:14.490Z,98485.75
2019-04-10T04:39:26.191Z,98473.70
2019-04-10T04:42:28.436Z,98474.47
2019-04-10T04:45:35.540Z,98485.23
2019-04-10T04:48:41.285Z,98479.95
2019-04-10T04:51:48.026Z,98485.84
2019-04-10T04:54:53.790Z,98488.38
2019-04-10T04:57:59.857Z,98483.22
2019-04-10T05:01:06.303Z,98492.22
2019-04-10T05:04:13.069Z,98499.27
2019-04-10T05:07:18.931Z,98501.35
2019-04-10T05:10:25.238Z,98504.06
2019-04-10T05:13:31.337Z,98506.04
2019-04-10T05:16:37.644Z,98507.30
2019-04-10T05:19:43.360Z,98508.89
2019-04-10T05:22:50.061Z,98515.77
2019-04-10T05:25:56.471Z,98506.16
2019-04-10T05:29:02.641Z,98516.81
2019-04-10T05:32:09.287Z,98505.80
2019-04-10T05:35:15.257Z,98509.97
2019-04-10T05:38:21.155Z,98514.85
2019-04-10T05:41:26.821Z,98520.38
2019-04-10T05:44:32.509Z,98519.30
2019-04-10T05:47:38.806Z,98522.57
2019-04-10T05:50:53.863Z,98522.03
2019-04-10T05:54:03.371Z,98521.53
2019-04-10T05:57:10.450Z,98518.48
2019-04-10T06:00:18.867Z,98518.09
2019-04-10T06:03:25.689Z,98520.86
2019-04-10T06:06:32.537Z,98528.24
2019-04-10T06:09:38.623Z,98523.36
2019-04-10T06:12:44.888Z,98521.66
2019-04-10T06:15:50.912Z,98521.50
2019-04-10T06:18:59.787Z,98529.35
2019-04-10T06:22:05.725Z,98533.73
2019-04-10T06:25:13.944Z,98534.80
2019-04-10T06:28:19.910Z,98534.56
2019-04-10T06:31:25.601Z,98540.12
2019-04-10T06:34:32.272Z,98536.48
2019-04-10T06:37:38.235Z,98535.48
2019-04-10T06:40:44.092Z,98540.23
2019-04-10T06:43:49.762Z,98549.59
2019-04-10T06:46:55.430Z,98542.41
2019-04-10T06:50:02.460Z,98542.88
2019-04-10T06:53:08.503Z,98549.37
2019-04-10T06:56:14.155Z,98546.84
2019-04-10T06:59:19.888Z,98554.07
2019-04-10T07:02:29.513Z,98544.95
2019-04-10T07:05:40.832Z,98545.82
2019-04-10T07:08:46.325Z,98547.81
2019-04-10T07:11:53.481Z,98546.37
2019-04-10T07:14:58.252Z,98548.35
2019-04-10T07:18:08.120Z,98552.33
2019-04-10T07:21:14.594Z,98559.88
2019-04-10T07:24:20.861Z,98555.39
2019-04-10T07:27:27.743Z,98556.02
2019-04-10T07:30:34.063Z,98554.28
2019-04-10T07:33:40.634Z,98559.39
2019-04-10T07:36:46.871Z,98562.94
2019-04-10T07:39:53.019Z,98574.27
2019-04-10T07:42:59.827Z,98574.36
2019-04-10T07:46:05.594Z,98576.80
2019-04-10T07:49:11.395Z,98585.75
2019-04-10T07:52:19.714Z,98583.73
2019-04-10T07:55:25.356Z,98575.17
2019-04-10T07:58:31.337Z,98575.17
2019-04-10T08:01:40.596Z,98576.39
2019-04-10T08:04:48.352Z,98572.23
2019-04-10T08:07:56.470Z,98569.65
2019-04-10T08:11:02.436Z,98580.33
2019-04-10T08:14:08.567Z,98582.31
2019-04-10T08:17:14.470Z,98580.70
2019-04-10T08:20:20.351Z,98580.70
2019-04-10T08:23:26.229Z,98590.99
2019-04-10T08:26:32.498Z,98581.90
2019-04-10T08:29:39.360Z,98584.13
2019-04-10T08:32:53.424Z,98587.00
2019-04-10T08:35:52.663Z,98589.67
2019-04-10T08:38:59.239Z,98590.58
2019-04-10T08:42:05.117Z,98590.58
2019-04-10T08:45:11.430Z,98586.46
2019-04-10T08:48:17.726Z,98591.70
2019-04-10T08:51:23.578Z,98589.05
2019-04-10T08:54:29.277Z,98587.77
2019-04-10T08:57:36.116Z,98582.37
2019-04-10T09:00:42.822Z,98582.37
2019-04-10T09:03:48.934Z,98591.89
2019-04-10T09:06:55.778Z,98596.75
2019-04-10T09:10:01.954Z,98599.50
2019-04-10T09:13:10.377Z,98599.50
2019-04-10T09:16:16.244Z,98599.94
2019-04-10T09:19:22.216Z,98598.06
2019-04-10T09:22:30.097Z,98602.78
2019-04-10T09:25:35.546Z,98609.45
2019-04-10T09:28:42.249Z,98617.11
2019-04-10T09:31:48.190Z,98614.45
2019-04-10T09:34:53.995Z,98607.43
2019-04-10T09:37:59.740Z,98607.11
2019-04-10T09:41:05.740Z,98607.73
2019-04-10T09:44:12.370Z,98607.72
2019-04-10T09:47:18.422Z,98599.34
2019-04-10T09:50:25.101Z,98602.45
2019-04-10T09:53:31.655Z,98593.17
2019-04-10T09:56:38.472Z,98593.59
2019-04-10T09:59:45.620Z,98594.72
2019-04-10T10:02:52.871Z,98590.30
2019-04-10T10:06:00.132Z,98589.23
2019-04-10T10:09:08.392Z,98586.41
2019-04-10T10:12:14.521Z,98596.70
2019-04-10T10:15:21.053Z,98604.12
2019-04-10T10:18:27.721Z,98604.36
2019-04-10T10:21:34.557Z,98603.97
2019-04-10T10:24:40.538Z,98600.10
2019-04-10T10:27:46.869Z,98595.62
2019-04-10T10:30:52.665Z,98602.50
2019-04-10T10:33:58.445Z,98599.72
2019-04-10T10:37:10.487Z,98599.97
2019-04-10T10:40:17.481Z,98594.34
2019-04-10T10:43:24.521Z,98604.70
2019-04-10T10:46:31.384Z,98603.64
2019-04-10T10:49:37.272Z,98610.16
2019-04-10T10:52:43.833Z,98604.47
2019-04-10T10:55:49.786Z,98603.92
2019-04-10T10:58:57.798Z,98610.02
2019-04-10T11:02:02.975Z,98605.37
2019-04-10T11:05:09.096Z,98605.66
2019-04-10T11:08:18.155Z,98609.38
2019-04-10T11:11:25.236Z,98603.33
2019-04-10T11:14:31.542Z,98603.03
2019-04-10T11:17:38.471Z,98607.58
2019-04-10T11:20:48.440Z,98609.48
2019-04-10T11:23:55.603Z,98610.10
2019-04-10T11:27:02.768Z,98615.95
2019-04-10T11:30:10.127Z,98609.60
2019-04-10T11:33:17.563Z,98615.98
2019-04-10T11:36:24.085Z,98614.03
2019-04-10T11:39:35.270Z,98607.19
2019-04-10T11:42:40.538Z,98602.34
2019-04-10T11:45:52.452Z,98610.08
2019-04-10T11:48:55.434Z,98608.06
2019-04-10T11:52:03.116Z,98610.33
2019-04-10T11:55:16.033Z,98610.19
2019-04-10T11:58:18.708Z,98611.72
2019-04-10T12:04:44.532Z,98607.05
2019-04-10T12:13:54.891Z,98600.23
2019-04-10T12:17:01.352Z,98594.13
2019-04-10T12:20:07.627Z,98599.63
2019-04-10T12:23:13.656Z,98606.50
2019-04-10T12:26:19.955Z,98603.06
2019-04-10T12:29:26.726Z,98599.19
2019-04-10T12:32:32.599Z,98606.27
2019-04-10T12:35:38.649Z,98600.58
2019-04-10T12:38:45.726Z,98602.98
2019-04-10T12:41:52.001Z,98604.45
2019-04-10T12:44:57.895Z,98600.28
2019-04-10T12:48:04.152Z,98595.66
2019-04-10T12:51:10.504Z,98594.23
2019-04-10T12:54:17.197Z,98591.77
2019-04-10T12:57:24.946Z,98604.28
2019-04-10T13:00:31.644Z,98592.38
2019-04-10T13:03:38.934Z,98594.62
2019-04-10T13:06:46.433Z,98592.72
2019-04-10T13:09:52.249Z,98587.94
2019-04-10T13:12:57.987Z,98590.96
2019-04-10T13:16:03.780Z,98582.67
2019-04-10T13:19:09.641Z,98584.42
2019-04-10T13:22:15.913Z,98583.99
2019-04-10T13:25:22.060Z,98585.03
2019-04-10T13:28:27.771Z,98581.19
2019-04-10T13:31:33.603Z,98585.58
2019-04-10T13:34:39.638Z,98587.06
2019-04-10T13:37:45.578Z,98582.03
2019-04-10T13:40:52.125Z,98570.68
2019-04-10T13:43:58.213Z,98573.16
2019-04-10T13:47:05.018Z,98576.16
2019-04-10T13:50:12.703Z,98570.59
2019-04-10T13:53:18.563Z,98569.64
2019-04-10T13:56:25.344Z,98570.94
2019-04-10T13:59:31.306Z,98570.84
2019-04-10T14:02:37.744Z,98569.96
2019-04-10T14:05:43.544Z,98569.06
2019-04-10T14:09:07.924Z,98576.97
2019-04-10T14:11:57.588Z,98572.30
2019-04-10T14:15:04.826Z,98571.41
2019-04-10T14:18:12.322Z,98571.27
2019-04-10T14:21:18.840Z,98576.02
2019-04-10T14:24:26.344Z,98574.16
2019-04-10T14:27:33.269Z,98568.78
2019-04-10T14:30:40.160Z,98569.73
2019-04-10T14:33:46.895Z,98571.34
2019-04-10T14:36:52.878Z,98567.52
2019-04-10T14:39:58.547Z,98567.53
2019-04-10T14:43:05.248Z,98567.16
2019-04-10T14:46:12.456Z,98569.77
2019-04-10T14:49:18.739Z,98565.83
2019-04-10T14:52:25.360Z,98570.05
2019-04-10T14:55:32.177Z,98574.91
2019-04-10T14:58:39.023Z,98570.00
2019-04-10T15:01:44.825Z,98572.82
2019-04-10T15:04:51.286Z,98569.64
2019-04-10T15:07:57.511Z,98575.12
2019-04-10T15:11:04.437Z,98572.95
2019-04-10T15:14:11.023Z,98575.36
2019-04-10T15:17:17.347Z,98575.33
2019-04-10T15:20:22.989Z,98576.23
2019-04-10T15:23:29.613Z,98573.48
2019-04-10T15:26:36.202Z,98580.44
2019-04-10T15:29:43.001Z,98582.77
2019-04-10T15:32:49.734Z,98588.88
2019-04-10T15:35:55.524Z,98593.22
2019-04-10T15:39:02.308Z,98590.13
2019-04-10T15:42:09.944Z,98583.19
2019-04-10T15:45:15.924Z,98590.84
2019-04-10T15:48:22.791Z,98588.60
2019-04-10T15:51:30.082Z,98586.55
2019-04-10T15:54:36.193Z,98591.09
2019-04-10T15:57:49.999Z,98593.84
2019-04-10T16:00:50.213Z,98588.91
2019-04-10T16:03:56.215Z,98599.51
2019-04-10T16:07:02.179Z,98601.72
2019-04-10T16:10:31.332Z,98602.37
2019-04-10T16:13:39.377Z,98601.19
2019-04-10T16:17:04.698Z,98599.96
2019-04-10T16:20:31.146Z,98599.56
2019-04-10T16:23:44.250Z,98603.23
2019-04-10T16:26:50.088Z,98599.78
2019-04-10T16:29:56.929Z,98600.09
2019-04-10T16:33:03.011Z,98601.97
2019-04-10T16:36:08.832Z,98597.34
2019-04-10T16:39:17.551Z,98597.87
2019-04-10T16:42:24.474Z,98600.80
2019-04-10T16:45:30.706Z,98597.77
2019-04-10T16:48:36.765Z,98599.22
2019-04-10T16:51:42.645Z,98604.69
2019-04-10T16:54:49.309Z,98609.64
2019-04-10T16:57:55.688Z,98608.56
2019-04-10T17:01:02.298Z,98604.52
2019-04-10T17:04:09.007Z,98603.02
2019-04-10T17:07:14.942Z,98609.30
2019-04-10T17:10:24.415Z,98616.69
2019-04-10T17:13:30.708Z,98620.72
2019-04-10T17:16:37.780Z,98628.33
2019-04-10T17:19:49.350Z,98630.86
2019-04-10T17:22:52.083Z,98634.53
2019-04-10T17:25:58.277Z,98634.36
2019-04-10T17:29:05.051Z,98631.66
2019-04-10T17:32:12.985Z,98636.31
2019-04-10T17:35:21.403Z,98650.38
2019-04-10T17:38:30.927Z,98647.02
2019-04-10T17:41:41.725Z,98649.63
2019-04-10T17:44:47.881Z,98653.31
2019-04-10T17:47:54.971Z,98656.02
2019-04-10T17:51:01.614Z,98659.36
2019-04-10T17:54:07.500Z,98663.49
2019-04-10T17:57:13.263Z,98668.64
2019-04-10T18:01:12.560Z,98667.97
2019-04-10T18:04:26.322Z,98672.70
2019-04-10T18:07:32.263Z,98674.90
2019-04-10T18:10:46.419Z,98672.52
2019-04-10T18:13:46.807Z,98678.86
2019-04-10T18:16:54.002Z,98684.70
2019-04-10T18:20:00.752Z,98690.92
2019-04-10T18:23:07.149Z,98696.78
2019-04-10T18:26:14.170Z,98699.23
2019-04-10T18:29:21.088Z,98705.72
2019-04-10T18:32:26.963Z,98705.80
2019-04-10T18:35:33.672Z,98711.30
2019-04-10T18:38:39.619Z,98719.00
2019-04-10T18:41:46.474Z,98711.52
2019-04-10T18:44:53.256Z,98714.77
2019-04-10T18:47:59.060Z,98718.83
2019-04-10T18:51:06.659Z,98716.81
2019-04-10T18:54:12.472Z,98724.19
2019-04-10T18:57:18.330Z,98731.58
2019-04-10T19:00:46.238Z,98727.47
2019-04-10T19:04:05.944Z,98732.95
2019-04-10T19:07:11.707Z,98732.03
2019-04-10T19:10:17.851Z,98732.03
2019-04-10T19:13:24.820Z,98740.73
2019-04-10T19:16:30.717Z,98731.59
2019-04-10T19:19:40.368Z,98739.70
2019-04-10T19:22:44.679Z,98735.63
2019-04-10T19:25:51.218Z,98734.89
2019-04-10T19:28:57.557Z,98734.10
2019-04-10T19:32:05.638Z,98729.03
2019-04-10T19:35:11.412Z,98733.77
2019-04-10T19:38:17.224Z,98735.95
2019-04-10T19:41:29.710Z,98739.87
2019-04-10T19:44:30.872Z,98735.48
2019-04-10T19:47:38.731Z,98738.98
2019-04-10T19:50:45.640Z,98738.98
2019-04-10T19:53:51.348Z,98741.17
2019-04-10T19:56:57.129Z,98732.15
2019-04-10T20:00:02.825Z,98732.15
2019-04-10T20:03:08.887Z,98730.08
2019-04-10T20:06:14.611Z,98718.52
2019-04-10T20:09:20.808Z,98718.52
2019-04-10T20:12:26.812Z,98727.33
2019-04-10T20:15:32.566Z,98722.95
2019-04-10T20:18:39.018Z,98718.59
2019-04-10T20:21:44.742Z,98718.59
2019-04-10T20:24:51.910Z,98723.99
2019-04-10T20:27:58.492Z,98713.86
2019-04-10T20:31:06.984Z,98723.33
2019-04-10T20:34:13.631Z,98725.72
2019-04-10T20:37:20.680Z,98725.72
2019-04-10T20:40:27.582Z,98730.64
2019-04-10T20:43:33.760Z,98730.70
2019-04-10T20:46:39.618Z,98730.52
2019-04-10T20:49:45.366Z,98733.81
2019-04-10T20:52:51.573Z,98735.44
2019-04-10T20:55:57.820Z,98734.34
2019-04-10T20:59:03.655Z,98734.33
2019-04-10T21:02:09.781Z,98730.64
2019-04-10T21:05:17.899Z,98730.64
2019-04-10T21:08:23.698Z,98731.01
2019-04-10T21:11:29.360Z,98733.81
2019-04-10T21:14:35.887Z,98740.89
2019-04-10T21:17:42.449Z,98738.95
2019-04-10T21:20:49.147Z,98741.42
2019-04-10T21:23:56.405Z,98741.82
2019-04-10T21:27:03.343Z,98737.45
2019-04-10T21:30:44.535Z,98743.33
2019-04-10T21:34:07.783Z,98743.91
2019-04-10T21:37:13.639Z,98742.09
2019-04-10T21:40:19.272Z,98744.77
2019-04-10T21:43:26.138Z,98736.77
2019-04-10T21:46:32.614Z,98743.20
2019-04-10T21:49:38.386Z,98745.70
2019-04-10T21:52:44.137Z,98745.70
2019-04-10T21:55:49.821Z,98752.63
2019-04-10T21:58:55.516Z,98750.06
2019-04-10T22:02:01.268Z,98757.36
2019-04-10T22:05:08.166Z,98766.73
2019-04-10T22:08:23.274Z,98760.68
2019-04-10T22:11:30.802Z,98760.68
2019-04-10T22:14:36.594Z,98761.31
2019-04-10T22:17:42.687Z,98763.81
2019-04-10T22:20:48.478Z,98764.95
2019-04-10T22:23:54.165Z,98759.02
2019-04-10T22:27:00.844Z,98756.45
2019-04-10T22:30:08.361Z,98754.64
2019-04-10T22:33:14.402Z,98750.83
2019-04-10T22:36:20.753Z,98751.53
2019-04-10T22:39:27.456Z,98752.35
2019-04-10T22:42:40.120Z,98745.68
2019-04-10T22:45:40.625Z,98745.68
2019-04-10T22:48:46.420Z,98755.31
2019-04-10T22:51:52.158Z,98754.98
2019-04-10T22:54:57.847Z,98752.83
2019-04-10T22:58:04.516Z,98754.08
2019-04-10T23:01:13.143Z,98749.89
2019-04-10T23:04:20.194Z,98752.69
2019-04-10T23:07:26.118Z,98746.14
2019-04-10T23:10:31.753Z,98746.14
2019-04-10T23:13:38.299Z,98745.58
2019-04-10T23:16:44.265Z,98750.85
2019-04-10T23:19:50.381Z,98750.87
2019-04-10T23:22:56.748Z,98750.31
2019-04-10T23:26:02.693Z,98750.45
2019-04-10T23:29:08.503Z,98743.65
2019-04-10T23:32:15.213Z,98750.84
2019-04-10T23:35:21.282Z,98756.54
2019-04-10T23:38:27.776Z,98756.54
2019-04-10T23:41:33.767Z,98753.16
2019-04-10T23:44:39.394Z,98756.84
2019-04-10T23:47:46.436Z,98747.76
2019-04-10T23:50:52.386Z,98739.27
2019-04-10T23:53:58.144Z,98740.73
2019-04-10T23:57:03.799Z,98733.61
